Main page
METAR-TAF:

METAR-TAF

Airports :

Albacete Airport

Albacete, Spain

latitude: 38-57N, longitude: 001-51W, elevation: 702 m

Current weather observation

The report was made 47 minutes ago, at 21:00 UTC
Wind 4 kt from the South
Temperature 0°C
Humidity 93%
Pressure 1026 hPa
Visibility 10 km or more
no clouds below 1500 m and no cumulonimbus

METAR: LEAB 102100Z 19004KT CAVOK M00/M01 Q1026 NOSIG

Time: 22:47 (21:47 UTC)

Forecast

The report was made 1 hour and 47 minutes ago, at 20:00 UTC
Forecast valid from 10 at 21 UTC to 11 at 06 UTC
Wind 5 kt from variable directions
Visibility 10 km or more
no clouds below 1500 m and no cumulonimbus
Probability 30% :
Temporary
from 10 at 21 UTC to 11 at 06 UTC
Wind 10 kt from the West/Northwest

TAF: LEAB 102000Z 1021/1106 VRB05KT CAVOK PROB30 TEMPO 1021/1106 29010KT

Weather observations and forecasts of more than 4000 airports (METAR and TAF reports).

The available stations are represented by yellow and red dots on the map.

Hover mouse over dot to see the name of the station.

Then click to see weather observations and forecasts.

To change the map : click on the green buttons with a black cross to zoom in, on the green button with a dash to zoom out, or on the green arrows for adjacent maps.


METAR-TAF: